METAR Data
IDs: Format: Raw Decoded Include TAF

Data at: 0416 UTC 26 May 2022

EKCH 260350Z AUTO 24014KT 9999 SCT014/// BKN091/// 13/11 Q1007 NOSIG